Time;durP1;ratioP1;P1;durP2;ratioP2;P2;SDS_P1;SDS_P2;PMS_P1;PMS_P2;Temp;Humidity;BMP_temperature;BMP_pressure;BME280_temperature;BME280_humidity;BME280_pressure;Samples;Min_cycle;Max_cycle;Signal;HPM_P1;HPM_P2
2021/03/23 00:00:42;;;;;;;7.47;3.63;;;5.00;91.00;;;;;;5056351;28;20261;-86
2021/03/23 00:03:20;;;;;;;8.07;3.90;;;4.90;90.90;;;;;;5038452;28;20644;-87
2021/03/23 00:05:51;;;;;;;9.10;3.63;;;4.90;90.70;;;;;;5038418;28;20191;-86
2021/03/23 00:08:27;;;;;;;10.27;4.60;;;4.90;90.70;;;;;;5056251;28;20175;-86
2021/03/23 00:10:58;;;;;;;8.13;3.90;;;4.90;90.90;;;;;;5038438;28;20238;-86
2021/03/23 00:13:24;;;;;;;9.37;3.27;;;4.80;91.30;;;;;;5038352;28;20195;-85
2021/03/23 00:15:57;;;;;;;9.57;4.17;;;4.80;91.60;;;;;;5056222;28;20202;-85
2021/03/23 00:18:26;;;;;;;5.90;3.47;;;4.70;91.60;;;;;;5039132;28;20180;-86
2021/03/23 00:20:57;;;;;;;6.13;3.80;;;4.80;91.70;;;;;;5038157;28;20217;-86
2021/03/23 00:23:28;;;;;;;7.30;3.90;;;4.70;91.70;;;;;;5038200;28;20225;-87
2021/03/23 00:26:01;;;;;;;6.80;3.73;;;4.70;91.70;;;;;;5055972;28;20187;-87
2021/03/23 00:28:33;;;;;;;5.80;3.87;;;4.60;91.80;;;;;;5056090;28;20658;-86
2021/03/23 00:31:04;;;;;;;6.87;3.47;;;4.70;91.90;;;;;;5055819;28;20261;-86
2021/03/23 00:33:34;;;;;;;8.40;4.47;;;4.70;91.80;;;;;;5055871;28;20214;-86
2021/03/23 00:36:05;;;;;;;10.80;4.77;;;4.70;91.80;;;;;;5036815;28;20217;-86
2021/03/23 00:38:35;;;;;;;7.33;4.33;;;4.60;91.90;;;;;;5055768;28;20199;-86
2021/03/23 00:41:05;;;;;;;8.87;4.20;;;4.70;91.90;;;;;;5037809;28;20276;-86
2021/03/23 00:43:44;;;;;;;7.50;4.13;;;4.60;91.60;;;;;;5037785;28;20542;-87
2021/03/23 00:46:14;;;;;;;9.57;4.40;;;4.70;91.60;;;;;;5037806;28;20183;-87
2021/03/23 00:48:46;;;;;;;9.47;4.07;;;4.60;91.70;;;;;;5037665;28;20535;-87
2021/03/23 00:51:14;;;;;;;8.63;3.90;;;4.60;91.70;;;;;;5055442;28;20202;-87
2021/03/23 00:53:44;;;;;;;11.40;4.67;;;4.60;91.60;;;;;;5037572;28;20234;-87
2021/03/23 00:56:18;;;;;;;7.03;4.00;;;4.70;91.60;;;;;;5037599;28;20231;-87
2021/03/23 00:58:55;;;;;;;8.10;4.10;;;4.60;91.60;;;;;;5055449;28;20178;-88
2021/03/23 01:01:24;;;;;;;8.77;3.77;;;4.60;91.60;;;;;;5055130;28;20214;-87
2021/03/23 01:03:58;;;;;;;8.83;3.77;;;4.60;91.70;;;;;;5055260;28;20229;-87
2021/03/23 01:06:34;;;;;;;13.40;5.53;;;4.60;91.30;;;;;;5037381;28;20242;-87
2021/03/23 01:09:07;;;;;;;15.17;4.60;;;4.70;91.20;;;;;;5055257;28;20251;-87
2021/03/23 01:11:34;;;;;;;10.70;4.10;;;4.70;90.80;;;;;;5037237;28;20679;-87
2021/03/23 01:14:04;;;;;;;8.10;3.90;;;4.60;90.90;;;;;;5055117;28;20210;-86
2021/03/23 01:16:34;;;;;;;5.40;3.27;;;4.60;90.90;;;;;;5037182;28;20280;-86
2021/03/23 01:19:07;;;;;;;7.87;3.40;;;4.60;90.90;;;;;;5037083;28;20272;-86
2021/03/23 01:21:38;;;;;;;8.43;3.13;;;4.70;91.00;;;;;;5036963;28;20200;-86
2021/03/23 01:24:06;;;;;;;4.90;2.80;;;4.60;90.80;;;;;;5036983;28;20270;-86
2021/03/23 01:26:37;;;;;;;11.10;3.43;;;4.60;90.90;;;;;;5036918;28;20185;-86
2021/03/23 01:29:09;;;;;;;4.50;3.07;;;4.60;90.80;;;;;;5054952;28;20168;-86
2021/03/23 01:31:43;;;;;;;9.70;3.47;;;4.70;90.80;;;;;;5036811;28;20207;-86
2021/03/23 01:34:10;;;;;;;11.83;3.20;;;4.60;90.70;;;;;;5054933;28;20160;-86
2021/03/23 01:36:38;;;;;;;7.50;2.83;;;4.70;90.60;;;;;;5036570;28;20303;-86
2021/03/23 01:39:05;;;;;;;8.70;3.10;;;4.60;90.30;;;;;;5054551;28;20213;-86
2021/03/23 01:41:35;;;;;;;10.37;3.10;;;4.70;90.30;;;;;;5036555;28;20249;-86
2021/03/23 01:44:01;;;;;;;7.50;3.33;;;4.70;90.40;;;;;;5054488;28;20180;-86
2021/03/23 01:46:39;;;;;;;7.73;2.93;;;4.60;90.30;;;;;;5054475;28;20186;-86
2021/03/23 01:49:15;;;;;;;10.20;3.23;;;4.60;90.10;;;;;;5036515;28;20189;-86
2021/03/23 01:51:48;;;;;;;8.30;2.67;;;4.60;89.90;;;;;;5054465;28;20163;-86
2021/03/23 01:54:25;;;;;;;3.83;2.60;;;4.60;89.70;;;;;;5036439;28;20209;-86
2021/03/23 01:56:56;;;;;;;8.57;3.17;;;4.70;89.80;;;;;;5036319;28;20267;-86
2021/03/23 01:59:38;;;;;;;9.20;2.80;;;4.70;89.80;;;;;;5036039;28;20190;-86
2021/03/23 02:02:09;;;;;;;5.40;2.50;;;4.70;89.60;;;;;;5054235;28;20219;-86
2021/03/23 02:04:41;;;;;;;12.43;3.20;;;4.70;89.60;;;;;;5036264;28;20191;-86
2021/03/23 02:07:14;;;;;;;8.90;2.70;;;4.70;89.60;;;;;;5036412;28;20180;-86
2021/03/23 02:09:53;;;;;;;7.40;2.47;;;4.70;89.60;;;;;;5054020;28;20249;-86
2021/03/23 02:12:26;;;;;;;5.17;2.20;;;4.70;89.50;;;;;;5036376;28;20180;-86
2021/03/23 02:14:54;;;;;;;6.10;2.50;;;4.70;89.40;;;;;;5036101;28;20254;-86
2021/03/23 02:17:36;;;;;;;12.47;2.83;;;4.70;89.40;;;;;;5035922;28;20257;-86
2021/03/23 02:20:19;;;;;;;6.03;2.50;;;4.70;89.30;;;;;;5053843;28;20195;-86
2021/03/23 02:23:04;;;;;;;5.83;2.60;;;4.80;89.30;;;;;;5053835;28;20252;-86
2021/03/23 02:25:30;;;;;;;7.60;2.93;;;4.80;89.50;;;;;;5035793;28;20179;-86
2021/03/23 02:28:02;;;;;;;7.87;3.10;;;4.70;89.80;;;;;;5035831;28;20205;-86
2021/03/23 02:30:40;;;;;;;3.87;2.23;;;4.70;89.50;;;;;;5053538;28;20199;-86
2021/03/23 02:33:11;;;;;;;6.00;2.77;;;4.70;89.60;;;;;;5035861;28;20582;-86
2021/03/23 02:35:37;;;;;;;9.20;3.20;;;4.70;89.60;;;;;;5035594;28;20264;-86
2021/03/23 02:38:06;;;;;;;5.47;2.57;;;4.70;89.50;;;;;;5035732;28;20186;-86
2021/03/23 02:40:34;;;;;;;5.43;3.10;;;4.70;89.40;;;;;;5035539;28;20194;-86
2021/03/23 02:43:07;;;;;;;2.93;2.60;;;4.70;89.30;;;;;;5035543;28;20313;-86
2021/03/23 02:45:33;;;;;;;8.47;2.77;;;4.80;89.30;;;;;;5035497;28;20233;-86
2021/03/23 02:48:07;;;;;;;7.17;2.93;;;4.70;89.20;;;;;;5053433;28;20179;-86
2021/03/23 02:50:34;;;;;;;4.57;2.97;;;4.80;89.30;;;;;;5053570;28;20629;-86
2021/03/23 02:53:00;;;;;;;4.73;2.97;;;4.70;89.60;;;;;;5053389;28;20195;-86
2021/03/23 02:55:30;;;;;;;5.47;2.63;;;4.70;89.70;;;;;;5035307;28;20226;-86
2021/03/23 02:58:00;;;;;;;7.43;3.57;;;4.70;89.60;;;;;;5053480;28;20191;-86
2021/03/23 03:00:28;;;;;;;6.87;3.03;;;4.70;89.40;;;;;;5034591;28;20297;-86
2021/03/23 03:02:58;;;;;;;7.40;4.93;;;4.70;89.40;;;;;;5035436;28;20183;-86
2021/03/23 03:05:27;;;;;;;8.83;3.30;;;4.70;89.60;;;;;;5053230;28;20166;-86
2021/03/23 03:07:54;;;;;;;10.37;3.77;;;4.70;89.80;;;;;;5053253;28;20285;-86
2021/03/23 03:10:27;;;;;;;7.27;3.80;;;4.80;89.60;;;;;;5035140;28;20195;-86
2021/03/23 03:12:57;;;;;;;8.07;4.67;;;4.80;89.50;;;;;;5035160;28;20171;-86
2021/03/23 03:15:26;;;;;;;6.93;3.77;;;4.70;89.70;;;;;;5035359;28;20179;-86
2021/03/23 03:17:56;;;;;;;9.10;3.77;;;4.80;89.60;;;;;;5035084;28;20175;-86
2021/03/23 03:20:32;;;;;;;6.40;3.33;;;4.80;89.50;;;;;;5052979;28;20191;-86
2021/03/23 03:23:04;;;;;;;5.97;3.10;;;4.80;89.40;;;;;;5035105;28;20174;-86
2021/03/23 03:25:37;;;;;;;11.60;4.03;;;4.80;89.30;;;;;;5035020;28;20207;-86
2021/03/23 03:28:10;;;;;;;6.40;3.47;;;4.80;89.40;;;;;;5052918;28;20567;-86
2021/03/23 03:30:40;;;;;;;4.73;3.30;;;4.80;89.30;;;;;;5034975;28;20224;-86
2021/03/23 03:33:10;;;;;;;6.17;3.77;;;4.80;89.40;;;;;;5034984;28;20176;-86
2021/03/23 03:35:39;;;;;;;7.87;4.40;;;4.80;89.70;;;;;;5052785;28;20682;-86
2021/03/23 03:38:11;;;;;;;8.43;4.30;;;4.80;89.80;;;;;;5052812;28;20172;-86
2021/03/23 03:40:55;;;;;;;12.07;4.10;;;4.80;89.60;;;;;;5034820;28;20191;-86
2021/03/23 03:43:31;;;;;;;13.90;4.57;;;4.80;89.60;;;;;;5034976;28;20215;-86
2021/03/23 03:46:04;;;;;;;10.73;4.00;;;4.80;89.70;;;;;;5035403;28;20188;-86
2021/03/23 03:48:36;;;;;;;9.33;4.47;;;4.80;89.60;;;;;;5034825;28;20183;-86
2021/03/23 03:51:08;;;;;;;5.07;4.23;;;4.80;89.70;;;;;;5034816;28;20195;-86
2021/03/23 03:53:35;;;;;;;6.60;4.40;;;4.80;89.60;;;;;;5035063;28;20720;-86
2021/03/23 03:56:07;;;;;;;6.37;4.73;;;4.80;89.70;;;;;;5034796;28;20203;-86
2021/03/23 03:58:38;;;;;;;8.00;4.80;;;4.80;89.70;;;;;;5034872;28;20175;-86
2021/03/23 04:01:10;;;;;;;6.70;4.53;;;4.80;89.90;;;;;;5052738;28;20288;-86
2021/03/23 04:03:40;;;;;;;7.83;4.13;;;4.80;89.80;;;;;;5035258;28;20176;-86
2021/03/23 04:06:08;;;;;;;8.93;4.77;;;4.80;89.80;;;;;;5034861;28;20188;-86
2021/03/23 04:08:36;;;;;;;10.83;4.33;;;4.90;89.80;;;;;;5034745;28;20179;-86
2021/03/23 04:11:14;;;;;;;7.60;4.47;;;4.80;90.00;;;;;;5035241;28;20195;-86
2021/03/23 04:13:41;;;;;;;7.50;4.67;;;4.80;90.00;;;;;;5038328;28;20189;-86
2021/03/23 04:16:10;;;;;;;9.93;5.07;;;4.80;90.20;;;;;;5056047;28;20280;-86
2021/03/23 04:18:39;;;;;;;9.63;4.90;;;4.80;90.40;;;;;;5056152;28;20648;-86
2021/03/23 04:21:12;;;;;;;9.77;4.63;;;4.80;90.50;;;;;;5056332;28;20192;-86
2021/03/23 04:23:44;;;;;;;7.73;5.17;;;4.80;90.60;;;;;;5038197;28;20697;-86
2021/03/23 04:26:14;;;;;;;13.97;5.60;;;4.80;90.50;;;;;;5038206;28;20604;-86
2021/03/23 04:28:43;;;;;;;8.90;4.87;;;4.80;90.30;;;;;;5038358;28;20184;-86
2021/03/23 04:31:40;;;;;;;9.87;5.23;;;4.80;90.20;;;;;;5055874;28;20192;-86
2021/03/23 04:34:14;;;;;;;7.80;4.73;;;4.80;90.50;;;;;;5038015;28;20274;-86
2021/03/23 04:36:48;;;;;;;13.00;5.33;;;4.80;90.50;;;;;;5055697;28;20207;-86
2021/03/23 04:39:16;;;;;;;12.43;5.27;;;4.80;90.40;;;;;;5038371;28;20206;-86
2021/03/23 04:41:43;;;;;;;13.37;5.67;;;4.80;90.30;;;;;;5037840;28;20686;-86
2021/03/23 04:44:10;;;;;;;12.67;6.00;;;4.80;90.40;;;;;;5037828;28;20168;-86
2021/03/23 04:46:43;;;;;;;7.90;5.60;;;4.80;90.40;;;;;;5055686;28;20593;-86
2021/03/23 04:49:20;;;;;;;11.00;5.30;;;4.80;90.20;;;;;;5055994;28;20524;-86
2021/03/23 04:51:46;;;;;;;8.27;5.30;;;4.80;90.10;;;;;;5037657;28;20183;-86
2021/03/23 04:54:18;;;;;;;11.97;5.53;;;4.80;90.30;;;;;;5038008;28;20179;-86
2021/03/23 04:56:44;;;;;;;11.37;5.63;;;4.80;90.00;;;;;;5037512;28;20706;-86
2021/03/23 04:59:13;;;;;;;10.63;6.23;;;4.80;90.00;;;;;;5055295;28;20643;-86
2021/03/23 05:01:46;;;;;;;12.00;5.63;;;4.80;90.10;;;;;;5037420;28;20217;-86
2021/03/23 05:04:21;;;;;;;9.37;5.20;;;4.80;90.00;;;;;;5055674;28;20542;-86
2021/03/23 05:06:52;;;;;;;9.53;5.93;;;4.80;89.70;;;;;;5037580;28;20186;-86
2021/03/23 05:09:20;;;;;;;10.17;5.90;;;4.80;89.90;;;;;;5055107;28;20639;-86
2021/03/23 05:11:50;;;;;;;12.37;6.13;;;4.80;90.00;;;;;;5055158;28;20189;-86
2021/03/23 05:14:16;;;;;;;14.37;6.40;;;4.90;90.00;;;;;;5055184;28;20226;-86
2021/03/23 05:16:44;;;;;;;14.93;7.17;;;4.90;89.60;;;;;;5037158;28;20214;-86
2021/03/23 05:19:14;;;;;;;11.03;6.70;;;4.90;89.70;;;;;;5054992;28;20194;-86
2021/03/23 05:21:44;;;;;;;12.80;7.20;;;4.90;89.80;;;;;;5055114;28;20556;-86
2021/03/23 05:24:14;;;;;;;17.50;10.37;;;4.80;89.80;;;;;;5054897;28;20171;-86
2021/03/23 05:26:44;;;;;;;13.80;7.27;;;4.90;89.90;;;;;;5054820;28;20176;-86
2021/03/23 05:29:13;;;;;;;13.33;7.13;;;4.90;90.00;;;;;;5054802;28;20179;-86
2021/03/23 05:31:41;;;;;;;14.67;7.87;;;4.90;89.90;;;;;;5054787;28;20168;-86
2021/03/23 05:34:11;;;;;;;16.03;7.43;;;4.90;89.90;;;;;;5054629;28;20237;-86
2021/03/23 05:36:41;;;;;;;15.50;8.30;;;4.90;89.80;;;;;;5036696;28;20206;-86
2021/03/23 05:39:12;;;;;;;15.87;7.83;;;4.90;89.90;;;;;;5036764;28;20172;-86
2021/03/23 05:41:50;;;;;;;23.87;8.10;;;4.90;90.10;;;;;;5054629;28;20612;-86
2021/03/23 05:44:26;;;;;;;16.43;8.37;;;5.00;90.00;;;;;;5036677;28;20199;-86
2021/03/23 05:46:54;;;;;;;18.90;8.77;;;4.90;90.10;;;;;;5036565;28;20179;-86
2021/03/23 05:49:41;;;;;;;17.33;9.27;;;4.90;90.20;;;;;;5054388;28;20176;-86
2021/03/23 05:52:12;;;;;;;18.57;7.70;;;4.90;90.30;;;;;;5054504;28;20172;-86
2021/03/23 05:54:58;;;;;;;19.77;9.17;;;4.90;90.30;;;;;;5036572;28;20160;-86
2021/03/23 05:57:44;;;;;;;17.67;9.47;;;4.90;90.40;;;;;;5036550;28;20196;-86
2021/03/23 06:00:27;;;;;;;18.77;8.67;;;4.90;90.50;;;;;;5054264;28;20245;-86
2021/03/23 06:03:28;;;;;;;14.67;9.53;;;4.90;90.60;;;;;;5036419;28;20183;-86
2021/03/23 06:06:26;;;;;;;19.50;9.90;;;4.90;90.80;;;;;;5050298;28;20191;-86
2021/03/23 06:09:02;;;;;;;19.87;9.57;;;5.00;90.90;;;;;;5013860;28;20266;-86
2021/03/23 06:11:40;;;;;;;13.97;8.30;;;4.90;91.20;;;;;;5036168;28;20199;-86
2021/03/23 06:14:30;;;;;;;18.60;9.93;;;4.90;91.40;;;;;;5036645;28;20175;-86
2021/03/23 06:17:30;;;;;;;18.63;10.83;;;4.90;91.50;;;;;;5053838;28;20694;-86
2021/03/23 06:20:28;;;;;;;17.23;10.67;;;4.90;91.70;;;;;;5053839;28;20196;-86
2021/03/23 06:23:34;;;;;;;23.80;12.23;;;4.90;91.70;;;;;;5053891;28;20175;-86
2021/03/23 06:26:21;;;;;;;22.70;11.63;;;4.90;91.80;;;;;;5052711;28;20179;-86
2021/03/23 06:29:04;;;;;;;20.63;11.73;;;5.00;92.10;;;;;;5036155;28;20179;-86
2021/03/23 06:31:35;;;;;;;27.70;12.60;;;5.00;92.20;;;;;;5053684;28;20294;-86
2021/03/23 06:34:05;;;;;;;31.23;13.40;;;5.00;92.30;;;;;;5035053;28;20262;-86
2021/03/23 06:36:35;;;;;;;27.57;14.17;;;4.90;92.40;;;;;;5035708;28;20198;-86
2021/03/23 06:39:09;;;;;;;26.83;15.70;;;4.90;92.50;;;;;;5053709;28;20202;-86
2021/03/23 06:41:54;;;;;;;32.17;14.57;;;4.90;92.60;;;;;;5035614;28;20550;-86
2021/03/23 06:44:26;;;;;;;34.57;17.37;;;5.00;92.60;;;;;;5053536;28;20158;-86
2021/03/23 06:46:57;;;;;;;28.50;15.50;;;4.90;92.80;;;;;;5053618;28;20209;-86
2021/03/23 06:49:30;;;;;;;26.87;16.07;;;5.00;92.80;;;;;;5053640;28;20531;-86
2021/03/23 06:52:02;;;;;;;28.60;16.87;;;5.00;92.80;;;;;;5035978;28;20269;-86
2021/03/23 06:54:34;;;;;;;34.27;17.33;;;5.00;92.80;;;;;;5053362;28;20258;-86
2021/03/23 06:57:15;;;;;;;35.03;17.20;;;5.00;92.80;;;;;;5053309;28;20245;-86
2021/03/23 07:00:23;;;;;;;34.67;18.30;;;5.00;92.70;;;;;;5035402;28;20195;-86
2021/03/23 07:03:10;;;;;;;32.90;17.93;;;5.00;92.80;;;;;;5053208;28;20176;-86
2021/03/23 07:05:46;;;;;;;32.13;16.00;;;5.00;92.80;;;;;;5053280;28;20642;-86
2021/03/23 07:08:18;;;;;;;33.77;16.53;;;5.10;92.90;;;;;;5053679;28;20622;-86
2021/03/23 07:11:02;;;;;;;30.17;17.13;;;5.10;92.80;;;;;;5035417;28;20199;-86
2021/03/23 07:13:38;;;;;;;30.37;17.00;;;5.00;92.70;;;;;;5035174;28;20555;-86
2021/03/23 07:16:15;;;;;;;38.27;17.87;;;5.10;92.80;;;;;;5053444;28;20191;-86
2021/03/23 07:18:51;;;;;;;27.73;16.90;;;5.10;92.80;;;;;;5035216;28;20191;-86
2021/03/23 07:21:41;;;;;;;32.50;17.90;;;5.10;92.80;;;;;;5053030;28;20199;-86
2021/03/23 07:24:18;;;;;;;39.13;18.30;;;5.10;92.90;;;;;;5053060;28;20670;-86
2021/03/23 07:27:11;;;;;;;29.83;17.17;;;5.10;92.90;;;;;;5052913;28;20183;-86
2021/03/23 07:29:47;;;;;;;33.63;18.30;;;5.10;93.00;;;;;;5035027;28;20192;-86
2021/03/23 07:32:44;;;;;;;35.93;19.27;;;5.10;92.90;;;;;;5035130;28;20266;-86
2021/03/23 07:35:27;;;;;;;40.17;18.60;;;5.10;93.00;;;;;;5052970;28;20172;-86
2021/03/23 07:38:23;;;;;;;37.63;17.97;;;5.10;93.00;;;;;;5035057;28;20180;-86
2021/03/23 07:40:58;;;;;;;38.03;19.40;;;5.10;93.20;;;;;;5052852;28;20188;-86
2021/03/23 07:43:42;;;;;;;35.30;20.00;;;5.10;93.20;;;;;;5035893;28;20582;-86
2021/03/23 07:46:26;;;;;;;39.40;20.07;;;5.20;93.40;;;;;;5037682;28;20196;-86
2021/03/23 07:49:04;;;;;;;44.43;22.23;;;5.20;93.30;;;;;;5056916;28;20259;-86
2021/03/23 07:51:54;;;;;;;37.90;19.77;;;5.20;93.40;;;;;;5056717;28;20242;-85
2021/03/23 07:54:37;;;;;;;39.87;19.30;;;5.20;93.40;;;;;;5056746;28;20180;-85
2021/03/23 07:57:25;;;;;;;31.80;18.57;;;5.20;93.50;;;;;;5038689;28;20203;-85
2021/03/23 08:00:13;;;;;;;39.57;20.43;;;5.20;93.40;;;;;;5038513;28;20215;-86
2021/03/23 08:03:20;;;;;;;39.63;19.43;;;5.20;93.50;;;;;;5038899;28;20168;-86
2021/03/23 08:06:18;;;;;;;42.10;20.37;;;5.20;93.40;;;;;;5038870;28;20266;-86
2021/03/23 08:09:26;;;;;;;37.70;20.80;;;5.30;93.50;;;;;;5038542;28;20175;-86
2021/03/23 08:12:06;;;;;;;39.23;22.07;;;5.20;93.30;;;;;;5055103;28;20172;-86
2021/03/23 08:14:52;;;;;;;50.23;21.57;;;5.20;93.30;;;;;;5038527;28;20176;-86
2021/03/23 08:17:28;;;;;;;38.93;20.73;;;5.30;93.60;;;;;;5054961;28;20205;-86
2021/03/23 08:20:22;;;;;;;37.03;19.77;;;5.30;93.60;;;;;;5038423;28;20215;-86
2021/03/23 08:23:03;;;;;;;42.67;21.70;;;5.20;93.50;;;;;;5054980;28;20156;-86
2021/03/23 08:25:49;;;;;;;34.63;19.17;;;5.30;93.60;;;;;;5038132;28;20558;-86
2021/03/23 08:28:27;;;;;;;45.90;22.43;;;5.30;93.60;;;;;;5038336;28;20168;-86
2021/03/23 08:31:21;;;;;;;39.67;20.33;;;5.30;93.70;;;;;;5038138;28;20706;-86
2021/03/23 08:33:58;;;;;;;42.07;22.00;;;5.30;93.70;;;;;;5056035;28;20172;-86
2021/03/23 08:36:34;;;;;;;40.87;22.80;;;5.30;93.70;;;;;;5037907;28;20276;-86
2021/03/23 08:39:17;;;;;;;41.27;20.33;;;5.40;93.70;;;;;;5038241;28;20182;-86
2021/03/23 08:42:01;;;;;;;42.03;21.37;;;5.30;93.70;;;;;;5055828;28;20160;-86
2021/03/23 08:44:39;;;;;;;44.00;21.87;;;5.30;93.80;;;;;;5056118;28;20209;-86
2021/03/23 08:47:25;;;;;;;39.50;20.77;;;5.30;93.90;;;;;;5038007;28;20175;-86
2021/03/23 08:49:57;;;;;;;45.97;23.37;;;5.30;93.80;;;;;;5037674;28;20222;-85
2021/03/23 08:52:39;;;;;;;42.73;21.70;;;5.40;93.90;;;;;;5055685;28;20640;-86
2021/03/23 08:55:26;;;;;;;37.73;21.00;;;5.40;93.90;;;;;;5055622;28;20168;-85
2021/03/23 08:58:14;;;;;;;39.67;20.90;;;5.40;93.60;;;;;;5036758;28;20571;-85
2021/03/23 09:01:02;;;;;;;40.57;19.13;;;5.40;93.60;;;;;;5037431;28;20265;-86
2021/03/23 09:03:44;;;;;;;37.33;19.90;;;5.40;93.60;;;;;;5037416;28;20183;-87
2021/03/23 09:06:18;;;;;;;40.73;19.33;;;5.50;93.60;;;;;;5037490;28;20164;-86
2021/03/23 09:08:54;;;;;;;39.60;19.87;;;5.40;93.60;;;;;;5037362;28;20179;-85
2021/03/23 09:11:54;;;;;;;41.57;21.13;;;5.40;93.50;;;;;;5037801;28;20593;-86
2021/03/23 09:14:25;;;;;;;36.17;20.43;;;5.40;93.70;;;;;;5055217;28;20254;-86
2021/03/23 09:17:01;;;;;;;33.07;17.80;;;5.40;93.70;;;;;;5055097;28;20200;-86
2021/03/23 09:19:53;;;;;;;39.90;20.80;;;5.40;93.70;;;;;;5055016;28;20168;-85
2021/03/23 09:22:31;;;;;;;37.57;18.50;;;5.50;93.80;;;;;;5055016;28;20263;-86
2021/03/23 09:25:24;;;;;;;40.47;20.97;;;5.50;93.60;;;;;;5054866;28;20251;-85
2021/03/23 09:27:50;;;;;;;41.50;20.97;;;5.50;93.70;;;;;;5054904;28;20298;-85
2021/03/23 09:30:48;;;;;;;37.60;21.17;;;5.60;93.60;;;;;;5054891;28;20203;-85
2021/03/23 09:33:24;;;;;;;46.00;23.03;;;5.60;93.60;;;;;;5035821;28;20218;-85
2021/03/23 09:38:46;;;;;;;43.90;22.37;;;5.60;93.40;;;;;;5054927;28;20161;-86
2021/03/23 09:41:32;;;;;;;49.40;23.70;;;5.60;93.30;;;;;;5036776;28;20200;-86
2021/03/23 09:44:08;;;;;;;45.03;21.63;;;5.60;93.40;;;;;;5036972;28;20188;-86
2021/03/23 09:46:51;;;;;;;44.60;22.80;;;5.60;93.30;;;;;;5054735;28;20175;-86
2021/03/23 09:49:41;;;;;;;41.40;22.07;;;5.50;93.10;;;;;;5054662;28;20164;-86
2021/03/23 09:52:17;;;;;;;48.30;23.17;;;5.60;93.10;;;;;;5053360;28;20263;-86
2021/03/23 09:55:01;;;;;;;44.53;23.13;;;5.60;93.10;;;;;;5036956;28;20172;-86
2021/03/23 09:57:32;;;;;;;40.40;23.07;;;5.50;93.00;;;;;;5054640;28;20277;-86
2021/03/23 10:00:02;;;;;;;43.40;23.70;;;5.60;93.10;;;;;;5036294;28;20216;-85
2021/03/23 10:02:34;;;;;;;47.60;24.00;;;5.70;93.10;;;;;;5036959;28;20178;-85
2021/03/23 10:05:26;;;;;;;45.87;24.23;;;5.70;93.00;;;;;;5037434;28;20162;-86
2021/03/23 10:08:11;;;;;;;47.97;23.77;;;5.80;93.00;;;;;;5057544;28;20186;-86
2021/03/23 10:10:41;;;;;;;43.07;22.57;;;5.80;93.10;;;;;;5057508;28;20203;-86
2021/03/23 10:13:27;;;;;;;39.20;23.83;;;5.80;92.90;;;;;;5039626;28;20195;-86
2021/03/23 10:16:08;;;;;;;42.43;23.50;;;5.80;92.90;;;;;;5038857;28;20172;-86
2021/03/23 10:18:40;;;;;;;41.43;23.03;;;5.80;93.00;;;;;;5038865;28;20176;-86
2021/03/23 10:21:14;;;;;;;46.40;24.37;;;5.80;93.00;;;;;;5057176;28;20203;-86
2021/03/23 10:23:56;;;;;;;52.30;25.53;;;5.80;92.70;;;;;;5038181;28;20548;-86
2021/03/23 10:26:37;;;;;;;42.00;23.23;;;5.90;92.60;;;;;;5053983;28;20176;-86
2021/03/23 10:29:13;;;;;;;51.60;25.20;;;5.80;92.40;;;;;;5053827;28;20172;-86
2021/03/23 10:31:57;;;;;;;43.10;24.13;;;5.90;92.70;;;;;;5035805;28;20197;-85
2021/03/23 10:34:33;;;;;;;44.23;24.53;;;6.00;92.50;;;;;;5053721;28;20163;-85
2021/03/23 10:37:07;;;;;;;48.80;26.03;;;6.00;92.50;;;;;;5053912;28;20228;-86
2021/03/23 10:39:51;;;;;;;42.43;24.77;;;6.10;92.60;;;;;;5036140;28;20179;-85
2021/03/23 10:42:33;;;;;;;45.80;25.87;;;6.00;92.10;;;;;;5053612;28;20162;-85
2021/03/23 10:45:26;;;;;;;48.80;25.93;;;6.00;92.30;;;;;;5053534;28;20169;-85
2021/03/23 10:48:17;;;;;;;45.93;24.63;;;6.10;92.40;;;;;;5035663;28;20171;-85
2021/03/23 10:51:06;;;;;;;50.37;25.20;;;6.10;92.20;;;;;;5035540;28;20199;-85
2021/03/23 10:53:40;;;;;;;47.80;25.30;;;6.20;92.20;;;;;;5052261;28;20588;-85
2021/03/23 10:56:21;;;;;;;48.83;26.37;;;6.20;92.10;;;;;;5035355;28;20208;-86
2021/03/23 10:59:14;;;;;;;44.20;26.33;;;6.20;92.00;;;;;;5035370;28;20694;-85
2021/03/23 11:02:22;;;;;;;48.60;25.63;;;6.20;92.00;;;;;;5053270;28;20185;-85
2021/03/23 11:05:09;;;;;;;45.33;26.23;;;6.30;91.80;;;;;;5013142;28;20541;-86
2021/03/23 11:07:59;;;;;;;46.30;26.90;;;6.30;91.70;;;;;;5035530;28;20168;-90
2021/03/23 11:10:34;;;;;;;44.63;26.83;;;6.30;91.40;;;;;;5035647;28;20196;-90
2021/03/23 11:13:07;;;;;;;53.20;26.23;;;6.30;91.50;;;;;;5053291;28;20176;-90
2021/03/23 11:15:42;;;;;;;48.17;26.13;;;6.40;91.30;;;;;;5035278;28;20180;-91
2021/03/23 11:18:27;;;;;;;47.30;25.60;;;6.30;90.80;;;;;;5035419;28;20272;-91
2021/03/23 11:21:02;;;;;;;46.00;26.77;;;6.40;90.80;;;;;;5035076;28;20189;-89
2021/03/23 11:23:44;;;;;;;52.57;27.03;;;6.30;90.50;;;;;;5053180;28;20759;-89
2021/03/23 11:26:20;;;;;;;52.30;25.87;;;6.40;90.70;;;;;;5035603;28;20186;-89
2021/03/23 11:28:54;;;;;;;44.00;25.93;;;6.50;90.80;;;;;;5053060;28;20181;-89
2021/03/23 11:31:34;;;;;;;51.10;26.03;;;6.50;90.40;;;;;;5035536;28;20205;-89
2021/03/23 11:34:06;;;;;;;44.00;26.30;;;6.60;90.50;;;;;;5035292;28;20215;-89
2021/03/23 11:36:39;;;;;;;52.80;28.43;;;6.60;90.40;;;;;;5035322;28;20744;-89
2021/03/23 11:39:13;;;;;;;49.63;27.00;;;6.70;90.50;;;;;;5053012;28;20174;-89
2021/03/23 11:41:50;;;;;;;51.60;28.07;;;6.60;90.30;;;;;;5035122;28;20190;-89
2021/03/23 11:44:25;;;;;;;52.13;27.60;;;6.70;90.20;;;;;;5052956;28;20178;-90
2021/03/23 11:47:16;;;;;;;47.03;27.93;;;6.60;89.90;;;;;;5035221;28;20178;-89
2021/03/23 11:50:04;;;;;;;52.97;29.50;;;6.50;89.90;;;;;;5035437;28;20197;-89
2021/03/23 11:52:36;;;;;;;58.43;31.07;;;6.60;89.90;;;;;;5035176;28;20166;-89
2021/03/23 11:55:11;;;;;;;51.93;29.13;;;6.60;89.40;;;;;;5052806;28;20234;-89
2021/03/23 11:57:43;;;;;;;49.27;28.50;;;6.70;89.70;;;;;;5034925;28;20581;-90
2021/03/23 12:00:14;;;;;;;52.33;30.03;;;6.80;89.80;;;;;;5034818;28;20215;-89
2021/03/23 12:02:45;;;;;;;52.03;29.53;;;6.80;89.80;;;;;;5069150;23;20226;-89
2021/03/23 12:05:18;;;;;;;55.37;30.10;;;6.90;89.60;;;;;;5051928;28;20182;-88
2021/03/23 12:08:17;;;;;;;60.33;31.70;;;6.90;88.90;;;;;;5052067;28;20179;-88
2021/03/23 12:11:20;;;;;;;50.70;29.67;;;6.90;88.80;;;;;;5052600;28;20243;-89
2021/03/23 12:14:17;;;;;;;54.47;31.47;;;6.90;88.60;;;;;;5033149;28;20241;-88
2021/03/23 12:17:08;;;;;;;42.70;24.57;;;6.80;87.50;;;;;;5033408;28;20203;-89
2021/03/23 12:19:44;;;;;;;58.13;31.53;;;6.70;87.20;;;;;;5031735;28;20168;-88
2021/03/23 12:22:18;;;;;;;60.53;33.30;;;6.70;88.20;;;;;;5031457;28;20257;-89
2021/03/23 12:24:49;;;;;;;49.63;30.43;;;6.80;88.10;;;;;;5031686;28;20736;-89
2021/03/23 12:27:22;;;;;;;52.60;30.37;;;6.70;87.70;;;;;;5033232;28;20198;-89
2021/03/23 12:29:54;;;;;;;51.63;31.83;;;6.70;87.90;;;;;;5031660;28;20263;-89
2021/03/23 12:32:25;;;;;;;54.03;30.90;;;6.80;87.70;;;;;;5032494;28;20207;-89
2021/03/23 12:35:00;;;;;;;56.50;32.27;;;6.80;87.60;;;;;;5035181;28;20550;-88
2021/03/23 12:37:34;;;;;;;55.23;29.50;;;6.80;87.60;;;;;;5036715;28;20202;-89
2021/03/23 12:40:13;;;;;;;59.40;30.90;;;6.90;87.10;;;;;;5036165;28;20178;-89
2021/03/23 12:42:42;;;;;;;50.17;29.07;;;7.00;87.90;;;;;;5036844;28;20224;-88
2021/03/23 12:45:30;;;;;;;51.63;29.30;;;7.20;86.80;;;;;;5035423;28;20172;-89
2021/03/23 12:48:01;;;;;;;45.07;28.10;;;7.30;86.90;;;;;;5036785;28;20573;-88
2021/03/23 12:50:31;;;;;;;53.00;27.20;;;7.30;86.00;;;;;;5034971;28;20211;-88
2021/03/23 12:53:08;;;;;;;48.17;27.10;;;7.40;85.80;;;;;;5036645;28;20191;-88
2021/03/23 12:55:38;;;;;;;52.00;26.13;;;7.50;86.00;;;;;;5035767;28;20556;-88
2021/03/23 12:58:12;;;;;;;42.13;24.60;;;7.50;85.30;;;;;;5036439;28;20286;-88
2021/03/23 13:00:47;;;;;;;43.67;24.30;;;7.60;85.70;;;;;;5035107;28;20172;-88
2021/03/23 13:03:22;;;;;;;42.93;24.77;;;7.50;85.00;;;;;;5035085;28;20666;-88
2021/03/23 13:05:57;;;;;;;43.43;24.40;;;7.50;84.60;;;;;;5036427;28;20165;-88
2021/03/23 13:08:34;;;;;;;43.73;25.40;;;7.50;85.00;;;;;;5036233;28;20645;-87
2021/03/23 13:11:07;;;;;;;41.33;24.87;;;7.50;84.50;;;;;;5035376;28;20184;-87
2021/03/23 13:13:42;;;;;;;41.97;22.93;;;7.60;85.10;;;;;;5034326;28;20188;-87
2021/03/23 13:16:08;;;;;;;37.77;24.37;;;7.60;84.30;;;;;;5034026;28;20629;-86
2021/03/23 13:18:36;;;;;;;32.87;21.03;;;7.50;83.80;;;;;;5034097;28;20173;-86
2021/03/23 13:21:06;;;;;;;32.40;21.10;;;7.40;83.70;;;;;;5033933;28;20176;-86
2021/03/23 13:23:49;;;;;;;35.50;20.90;;;7.50;83.50;;;;;;5033904;28;20180;-86
2021/03/23 13:26:23;;;;;;;36.67;23.33;;;7.50;83.50;;;;;;5035204;28;20594;-86
2021/03/23 13:29:06;;;;;;;38.20;24.20;;;7.40;83.70;;;;;;5035043;28;20179;-86
2021/03/23 13:31:45;;;;;;;39.17;23.10;;;7.40;84.20;;;;;;5033757;28;20668;-86
2021/03/23 13:34:22;;;;;;;41.73;22.97;;;7.50;84.20;;;;;;5035803;28;20172;-87
2021/03/23 13:36:56;;;;;;;38.37;22.90;;;7.40;83.70;;;;;;5033594;28;20571;-86